Flight Track Log - Related Links

Times and Time Zones

All times are in EDT time to prevent confusion due to time zone crossing. See the N448ND flight status page for this flight to view local times or setup timezone preferences in your user account.

Time Position Orientation Groundspeed Altitude Reporting Facility
EDT Latitude Longitude Course Direction KTS MPH feet Rate Location/Type
Wed 02:41:13 PM 27.4786 -80.3494 88° East 79 91 600  Level Miami Center
Wed 02:42:15 PM 27.4794 -80.3242 88° East 75 86 1,200 532 Climbing Miami Center
Wed 02:43:17 PM 27.4803 -80.2992 88° East 75 86 1,700 484 Climbing Miami Center
Wed 02:44:19 PM 27.4806 -80.2767 89° East 75 86 2,200 532 Climbing Miami Center
Wed 02:45:21 PM 27.4858 -80.2522 76° East 76 87 2,800 435 Climbing Miami Center
Wed 02:46:23 PM 27.5106 -80.2742 322° Northwest 113 130 3,100 145 Climbing Miami Center
Wed 02:47:25 PM 27.5347 -80.3036 313° West 119 137 3,100  Level Miami Center
Wed 02:48:27 PM 27.5597 -80.3322 315° West 124 143 3,100  Level Miami Center
Wed 02:49:29 PM 27.5842 -80.3622 313° West 124 143 3,100  Level Miami Center
Wed 02:50:30 PM 27.6064 -80.3897 312° West 124 143 3,100 -49 Level Miami Center
Wed 02:51:32 PM 27.5892 -80.4161 234° Southwest 104 120 3,000 -48 Descending Miami Center
Wed 02:52:34 PM 27.5703 -80.4408 229° Southwest 100 115 3,000  Level Miami Center
Wed 02:53:36 PM 27.5678 -80.4764 265° West 108 124 3,000 48 Level Miami Center
Wed 02:54:38 PM 27.5694 -80.5128 273° West 109 125 3,100  Climbing Miami Center
Wed 02:55:40 PM 27.5764 -80.5472 283° West 113 130 3,000 -48 Descending Miami Center
Wed 02:56:42 PM 27.5953 -80.5786 304° West 114 131 3,000  Level Miami Center
Wed 02:57:43 PM 27.6225 -80.6050 319° Northwest 123 142 3,000  Level Miami Center
Wed 02:58:45 PM 27.6536 -80.6194 338° Northwest 120 138 3,000 48 Level Miami Center
Wed 02:59:47 PM 27.6881 -80.6228 355° North 119 137 3,100 -97 Climbing Miami Center
Wed 03:00:49 PM 27.7086 -80.6056 37° Northeast 104 120 2,800 -484 Descending Miami Center
Wed 03:01:51 PM 27.7078 -80.5783 92° East 92 106 2,100 -629 Descending Miami Center
Wed 03:02:53 PM 27.7003 -80.5519 108° East 85 98 1,500 -390 Descending Miami Center
Wed 03:03:54 PM 27.6914 -80.5272 112° Southeast 84 97 1,300 -98 Descending Miami Center
Wed 03:04:56 PM 27.6828 -80.5011 110° East 84 97 1,300 -194 Level Miami Center
Wed 03:05:58 PM 27.6742 -80.4758 111° Southeast 84 97 900 -387 Descending Miami Center
Wed 03:07:00 PM 27.6678 -80.4592 113° Southeast 66 76 500 -194 Descending Miami Center
Wed 03:08:02 PM 27.6606 -80.4367 110° East 69 79 500 194 Level Miami Center
Wed 03:09:04 PM 27.6558 -80.4131 103° East 71 82 900 387 Climbing Miami Center
Wed 03:10:06 PM 27.6525 -80.3906 99° East 71 82 1,300 488 Climbing Miami Center
Wed 03:11:07 PM 27.6503 -80.3658 96° East 72 83 1,900 537 Climbing Miami Center
Wed 03:12:09 PM 27.6489 -80.3428 94° East 74 85 2,400 484 Climbing Miami Center
Wed 03:13:11 PM 27.6494 -80.3181 89° East 74 85 2,900 339 Climbing Miami Center
Wed 03:14:13 PM 27.6467 -80.2919 97° East 77 89 3,100 97 Climbing Miami Center
Wed 03:15:15 PM 27.6194 -80.2936 183° South 88 101 3,100  Level Miami Center
Wed 03:16:17 PM 27.6108 -80.3283 254° West 118 136 3,100 -48 Level Miami Center
Wed 03:17:19 PM 27.6086 -80.3675 266° West 118 136 3,000  Descending Miami Center
Wed 03:18:21 PM 27.6075 -80.4039 268° West 118 136 3,100 48 Climbing Miami Center
Wed 03:19:23 PM 27.6067 -80.4425 269° West 119 137 3,100  Level Miami Center
Wed 03:20:25 PM 27.6050 -80.4822 267° West 119 137 3,100  Level Miami Center
Wed 03:21:27 PM 27.6031 -80.5192 267° West 118 136 3,100 -48 Level Miami Center
Wed 03:22:29 PM 27.6011 -80.5564 267° West 113 130 3,000  Descending Miami Center
Wed 03:23:31 PM 27.5989 -80.5936 266° West 114 131 3,100  Climbing Miami Center
Wed 03:24:33 PM 27.5969 -80.6283 266° West 114 131 3,000 -242 Descending Miami Center
Wed 03:25:35 PM 27.5786 -80.6469 222° Southwest 101 116 2,600 -435 Descending Miami Center
Wed 03:26:37 PM 27.5553 -80.6483 183° South 81 93 2,100 -242 Descending Miami Center
Wed 03:27:39 PM 27.5286 -80.6492 182° South 92 106 2,100 -48 Level Miami Center
Wed 03:28:41 PM 27.5078 -80.6372 153° Southeast 95 109 2,000  Descending Miami Center
Wed 03:29:44 PM 27.4989 -80.6089 109° East 88 101 2,100  Climbing Miami Center
Wed 03:30:46 PM 27.4992 -80.5806 89° East 88 101 2,000 -97 Descending Miami Center
Wed 03:31:48 PM 27.4981 -80.5519 93° East 90 104 1,900  Descending Miami Center
Wed 03:32:50 PM 27.4983 -80.5236 89° East 90 104 2,000  Climbing Miami Center
Wed 03:33:52 PM 27.4981 -80.4933 91° East 89 102 1,900 -145 Descending Miami Center
Wed 03:34:54 PM 27.4989 -80.4644 88° East 90 104 1,700 -339 Descending Miami Center
Wed 03:35:56 PM 27.4972 -80.4406 94° East 76 87 1,200 -532 Descending Miami Center
Wed 03:36:58 PM 27.4978 -80.4156 89° East 76 87 600 -339 Descending Miami Center
Wed 03:38:00 PM 27.4986 -80.3925 88° East 76 87 500 -194 Descending Miami Center
Wed 03:39:02 PM 27.4994 -80.3750 87° East 80 92 200 -290 Descending Miami Center

Login

Don't have an account? Register now (free) for customized features, flight alerts, and more!